Hay, Australia
Current Conditions -  °F | °C
As of 6:00 AM on Friday 24 Oct 2014 (Local Time) from YGTH Reporting Station
Clear Clear  
Wind Chill: 75°   Ceiling: Unl
Heat Index: 75°   Visibility: 6mi
Dew Point: 45°   Wind: 9mph
Humidity: 34%   Direction: 20°NNE
Pressure: 29.88"   Gusts: NA
Location:  34.53°S, 144.87°E
Report Text: YGTH 231900Z AUTO 02008KT 9999 // NCD 24/07 Q1012
Loading
Personal Weather Stations






























Interactive Weather Map
Tropical Storm Tracking
New forecast layout! Learn more

10-Day Weather Forecast

Advertisements
Track Severe Weather on mobile